Crownsville, Maryland
Current Conditions -  °F | °C
As of 8:17 AM on Wednesday 22 Oct 2014 (Local Time) from KNAK Reporting Station
Light Rain Light Rain  
Wind Chill: 55°   Ceiling: 1400
Heat Index: 55°   Visibility: 2.5mi
Dew Point: 53°   Wind: 10mph
Humidity: 93%   Direction: 340°NNW
Pressure: 29.88"   Gusts: NA
Location:  39.03°N, 76.6°W
Report Text: KNAK 221217Z AUTO 34009KT 2 1/2SM -RA BR OVC014 13/12 A2988 RMK AO2 P0004 T01280117 $
Loading
Personal Weather Stations






























Interactive Weather Map
Tropical Storm Tracking
New forecast layout! Learn more

10-Day Weather Forecast

Advertisements
Track Severe Weather on mobile